Time;durP1;ratioP1;P1;durP2;ratioP2;P2;SDS_P1;SDS_P2;PMS_P1;PMS_P2;Temp;Humidity;BMP_temperature;BMP_pressure;BME280_temperature;BME280_humidity;BME280_pressure;Samples;Min_cycle;Max_cycle;Signal;HPM_P1;HPM_P2
2023/05/05 00:02:12;;;;;;;9.18;4.85;;;;;;;;;;5115159;27;20121;-73
2023/05/05 00:04:38;;;;;;;11.15;4.80;;;;;;;;;;5133104;27;20047;-73
2023/05/05 00:07:04;;;;;;;8.88;5.15;;;;;;;;;;5133830;27;20046;-80
2023/05/05 00:09:31;;;;;;;9.55;5.20;;;;;;;;;;5119323;27;20420;-77
2023/05/05 00:11:57;;;;;;;9.00;5.13;;;;;;;;;;5133077;27;20039;-79
2023/05/05 00:14:23;;;;;;;11.93;5.07;;;;;;;;;;5121911;27;20089;-79
2023/05/05 00:16:49;;;;;;;8.98;5.22;;;;;;;;;;5131737;28;20031;-79
2023/05/05 00:19:15;;;;;;;10.35;5.10;;;;;;;;;;5105270;28;20553;-75
2023/05/05 00:21:41;;;;;;;7.82;4.90;;;;;;;;;;5127620;28;20105;-79
2023/05/05 00:24:09;;;;;;;10.70;5.05;;;;;;;;;;5132034;28;20031;-78
2023/05/05 00:26:35;;;;;;;10.43;5.13;;;;;;;;;;5133202;28;20488;-74
2023/05/05 00:29:01;;;;;;;9.07;4.75;;;;;;;;;;5131910;28;20039;-70
2023/05/05 00:31:27;;;;;;;9.80;5.50;;;;;;;;;;5124585;28;20432;-71
2023/05/05 00:33:53;;;;;;;10.35;5.32;;;;;;;;;;5127583;28;20077;-73
2023/05/05 00:36:19;;;;;;;9.45;5.30;;;;;;;;;;5115180;28;20168;-79
2023/05/05 00:38:45;;;;;;;11.23;5.25;;;;;;;;;;5114394;28;20043;-71
2023/05/05 00:41:11;;;;;;;9.77;5.22;;;;;;;;;;5117152;28;20134;-72
2023/05/05 00:43:37;;;;;;;12.27;5.60;;;;;;;;;;5133034;28;20083;-72
2023/05/05 00:46:09;;;;;;;10.45;5.95;;;;;;;;;;5114795;28;20047;-79
2023/05/05 00:48:35;;;;;;;10.20;5.70;;;;;;;;;;5122388;28;20035;-77
2023/05/05 00:51:01;;;;;;;9.27;5.85;;;;;;;;;;5118886;28;20035;-78
2023/05/05 00:53:27;;;;;;;10.38;5.68;;;;;;;;;;5131958;28;20414;-80
2023/05/05 00:55:53;;;;;;;11.52;5.70;;;;;;;;;;5118949;28;20032;-78
2023/05/05 00:58:20;;;;;;;11.50;5.65;;;;;;;;;;5131684;28;20031;-80
2023/05/05 01:00:46;;;;;;;10.13;5.72;;;;;;;;;;5120705;28;20046;-78
2023/05/05 01:03:14;;;;;;;9.07;5.65;;;;;;;;;;5111368;28;20031;-80
2023/05/05 01:06:06;;;;;;;12.63;6.60;;;;;;;;;;5122647;28;20039;-79
2023/05/05 01:08:42;;;;;;;9.85;6.13;;;;;;;;;;5123373;28;20090;-78
2023/05/05 01:11:17;;;;;;;11.63;6.38;;;;;;;;;;5125120;28;20038;-77
2023/05/05 01:14:06;;;;;;;12.02;6.57;;;;;;;;;;5124927;28;20126;-77
2023/05/05 01:16:33;;;;;;;10.82;6.20;;;;;;;;;;5108218;27;20085;-72
2023/05/05 01:19:23;;;;;;;14.02;6.57;;;;;;;;;;5135841;27;20384;-70
2023/05/05 01:22:08;;;;;;;13.45;6.07;;;;;;;;;;5115784;27;20082;-72
2023/05/05 01:24:37;;;;;;;11.17;6.30;;;;;;;;;;5127498;27;20537;-79
2023/05/05 01:27:22;;;;;;;10.98;5.93;;;;;;;;;;5130837;27;20506;-75
2023/05/05 01:30:09;;;;;;;12.30;6.10;;;;;;;;;;5127224;27;20057;-78
2023/05/05 01:32:39;;;;;;;10.50;6.53;;;;;;;;;;5102139;27;20427;-80
2023/05/05 01:35:08;;;;;;;10.57;6.40;;;;;;;;;;5125515;27;20035;-78
2023/05/05 01:37:45;;;;;;;11.20;5.75;;;;;;;;;;5118812;27;20092;-80
2023/05/05 01:40:12;;;;;;;14.05;6.47;;;;;;;;;;5114222;28;20044;-79
2023/05/05 01:42:41;;;;;;;12.73;6.45;;;;;;;;;;5131502;27;20051;-72
2023/05/05 01:45:08;;;;;;;10.50;6.05;;;;;;;;;;5136509;27;20039;-80
2023/05/05 01:47:35;;;;;;;10.45;6.97;;;;;;;;;;5135044;27;20511;-79
2023/05/05 01:50:02;;;;;;;13.82;6.35;;;;;;;;;;5134839;27;20507;-78
2023/05/05 01:52:29;;;;;;;11.20;6.60;;;;;;;;;;5134807;27;20043;-78
2023/05/05 01:54:57;;;;;;;10.10;6.50;;;;;;;;;;5135727;27;20057;-79
2023/05/05 01:57:25;;;;;;;13.00;7.00;;;;;;;;;;5136032;27;20126;-76
2023/05/05 01:59:52;;;;;;;10.95;6.22;;;;;;;;;;5135638;27;20038;-77
2023/05/05 02:02:20;;;;;;;12.18;6.80;;;;;;;;;;5132941;27;20074;-77
2023/05/05 02:04:47;;;;;;;16.25;7.03;;;;;;;;;;5120865;27;20474;-80
2023/05/05 02:07:14;;;;;;;16.75;6.65;;;;;;;;;;5128702;27;20035;-76
2023/05/05 02:09:40;;;;;;;11.15;7.07;;;;;;;;;;5134598;27;20036;-76
2023/05/05 02:12:07;;;;;;;10.85;6.80;;;;;;;;;;5123490;27;20035;-76
2023/05/05 02:14:34;;;;;;;13.68;7.00;;;;;;;;;;5127713;27;20089;-76
2023/05/05 02:17:00;;;;;;;13.63;6.88;;;;;;;;;;5128334;27;20040;-77
2023/05/05 02:19:32;;;;;;;13.40;6.57;;;;;;;;;;5125639;27;20031;-78
2023/05/05 02:21:58;;;;;;;14.38;7.05;;;;;;;;;;5131446;27;20036;-71
2023/05/05 02:24:25;;;;;;;10.77;6.35;;;;;;;;;;5129075;27;20042;-71
2023/05/05 02:26:52;;;;;;;11.40;6.88;;;;;;;;;;5127107;27;20047;-72
2023/05/05 02:29:19;;;;;;;13.75;7.03;;;;;;;;;;5119397;27;20384;-80
2023/05/05 02:31:48;;;;;;;13.40;6.90;;;;;;;;;;5122766;27;20073;-77
2023/05/05 02:34:20;;;;;;;10.70;6.82;;;;;;;;;;5131242;27;20072;-77
2023/05/05 02:36:47;;;;;;;12.13;7.53;;;;;;;;;;5123252;27;20036;-77
2023/05/05 02:39:19;;;;;;;14.40;6.85;;;;;;;;;;5132540;27;20162;-75
2023/05/05 02:41:46;;;;;;;11.70;6.90;;;;;;;;;;5116206;27;20034;-77
2023/05/05 02:44:14;;;;;;;9.93;6.60;;;;;;;;;;5131198;27;20501;-78
2023/05/05 02:46:40;;;;;;;12.98;7.05;;;;;;;;;;5155713;27;20163;-77
2023/05/05 02:49:06;;;;;;;14.50;7.07;;;;;;;;;;5147902;27;20039;-77
2023/05/05 02:51:32;;;;;;;13.95;7.10;;;;;;;;;;5129598;27;20079;-77
2023/05/05 02:53:59;;;;;;;13.38;7.07;;;;;;;;;;5113308;27;20129;-78
2023/05/05 02:56:25;;;;;;;12.40;7.68;;;;;;;;;;5116555;27;20503;-76
2023/05/05 02:58:54;;;;;;;12.82;7.40;;;;;;;;;;5128370;27;20490;-75
2023/05/05 03:01:26;;;;;;;12.73;7.50;;;;;;;;;;5137467;27;20034;-77
2023/05/05 03:03:59;;;;;;;12.48;8.18;;;;;;;;;;5155600;27;20042;-76
2023/05/05 03:06:27;;;;;;;16.10;8.00;;;;;;;;;;5141047;27;20053;-70
2023/05/05 03:09:01;;;;;;;13.73;8.23;;;;;;;;;;5154888;27;20118;-75
2023/05/05 03:11:31;;;;;;;13.70;8.45;;;;;;;;;;5136647;27;20035;-75
2023/05/05 03:14:18;;;;;;;12.88;8.50;;;;;;;;;;5136376;27;20053;-75
2023/05/05 03:16:44;;;;;;;13.57;8.45;;;;;;;;;;5136331;27;20027;-70
2023/05/05 03:19:13;;;;;;;12.85;8.60;;;;;;;;;;5144734;27;20034;-69
2023/05/05 03:21:40;;;;;;;14.20;9.20;;;;;;;;;;5119314;27;21722;-70
2023/05/05 03:24:13;;;;;;;15.02;9.25;;;;;;;;;;5133875;27;20039;-70
2023/05/05 03:26:39;;;;;;;11.80;7.85;;;;;;;;;;5117915;27;20615;-70
2023/05/05 03:29:06;;;;;;;14.10;9.40;;;;;;;;;;5135962;27;20067;-75
2023/05/05 03:31:32;;;;;;;14.43;8.68;;;;;;;;;;5155153;27;20677;-69
2023/05/05 03:33:58;;;;;;;15.50;9.60;;;;;;;;;;5115223;27;20050;-70
2023/05/05 03:36:26;;;;;;;14.68;8.70;;;;;;;;;;5128230;27;20034;-75
2023/05/05 03:38:52;;;;;;;14.68;9.77;;;;;;;;;;5135552;27;20087;-70
2023/05/05 03:41:19;;;;;;;19.85;10.07;;;;;;;;;;5154224;27;20499;-71
2023/05/05 03:43:45;;;;;;;18.38;10.52;;;;;;;;;;5151754;27;20035;-71
2023/05/05 03:46:11;;;;;;;17.33;10.07;;;;;;;;;;5133590;27;20047;-79
2023/05/05 03:48:38;;;;;;;17.38;9.70;;;;;;;;;;5116119;27;20046;-78
2023/05/05 03:51:04;;;;;;;14.80;9.25;;;;;;;;;;5121286;27;20099;-70
2023/05/05 03:53:30;;;;;;;15.48;9.32;;;;;;;;;;5123592;27;20088;-79
2023/05/05 03:55:56;;;;;;;11.88;9.32;;;;;;;;;;5137823;27;20030;-81
2023/05/05 03:58:22;;;;;;;16.88;10.18;;;;;;;;;;5154296;27;20067;-72
2023/05/05 04:00:48;;;;;;;16.48;11.57;;;;;;;;;;5154241;27;20035;-79
2023/05/05 04:03:15;;;;;;;17.63;10.65;;;;;;;;;;5132422;27;20076;-82
2023/05/05 04:05:41;;;;;;;16.02;10.50;;;;;;;;;;5117956;27;20518;-82
2023/05/05 04:08:07;;;;;;;16.75;11.15;;;;;;;;;;5134921;27;20042;-72
2023/05/05 04:10:34;;;;;;;17.42;11.60;;;;;;;;;;5154156;27;20372;-72
2023/05/05 04:13:00;;;;;;;19.13;11.95;;;;;;;;;;5153753;27;20131;-72
2023/05/05 04:15:26;;;;;;;20.60;13.13;;;;;;;;;;5111415;27;20039;-72
2023/05/05 04:17:52;;;;;;;18.13;12.07;;;;;;;;;;5132113;27;21239;-72
2023/05/05 04:20:18;;;;;;;18.70;12.20;;;;;;;;;;5123737;27;20035;-72
2023/05/05 04:22:44;;;;;;;18.00;12.90;;;;;;;;;;5154345;27;20050;-81
2023/05/05 04:25:11;;;;;;;19.38;13.07;;;;;;;;;;5118580;27;20063;-82
2023/05/05 04:27:37;;;;;;;18.63;13.23;;;;;;;;;;5153986;27;20038;-81
2023/05/05 04:30:03;;;;;;;18.40;13.15;;;;;;;;;;5147234;27;20038;-72
2023/05/05 04:32:29;;;;;;;17.92;13.63;;;;;;;;;;5154013;27;20043;-72
2023/05/05 04:34:55;;;;;;;19.88;12.80;;;;;;;;;;5103981;27;20043;-72
2023/05/05 04:37:21;;;;;;;18.63;13.30;;;;;;;;;;5126839;28;20099;-72
2023/05/05 04:39:47;;;;;;;18.27;13.10;;;;;;;;;;5112122;27;20138;-72
2023/05/05 04:42:14;;;;;;;21.33;13.13;;;;;;;;;;5135380;27;20050;-82
2023/05/05 04:44:40;;;;;;;19.33;12.35;;;;;;;;;;5141240;27;20519;-72
2023/05/05 04:47:06;;;;;;;18.13;11.75;;;;;;;;;;5147340;27;20035;-72
2023/05/05 04:49:32;;;;;;;18.20;12.30;;;;;;;;;;5125379;27;20038;-72
2023/05/05 04:51:58;;;;;;;21.70;13.07;;;;;;;;;;5138054;27;20107;-72
2023/05/05 04:54:24;;;;;;;22.13;11.38;;;;;;;;;;5124716;27;20042;-81
2023/05/05 04:56:50;;;;;;;19.85;13.48;;;;;;;;;;5139413;27;20046;-82
2023/05/05 04:59:16;;;;;;;22.23;13.13;;;;;;;;;;5120959;27;20356;-82
2023/05/05 05:01:42;;;;;;;17.58;13.70;;;;;;;;;;5146796;27;20030;-72
2023/05/05 05:04:12;;;;;;;20.20;13.90;;;;;;;;;;5121458;27;20058;-72
2023/05/05 05:06:38;;;;;;;20.45;13.80;;;;;;;;;;5122239;27;20039;-81
2023/05/05 05:09:04;;;;;;;17.58;13.00;;;;;;;;;;5142997;27;20039;-72
2023/05/05 05:11:30;;;;;;;18.25;12.57;;;;;;;;;;5136919;27;20046;-82
2023/05/05 05:13:56;;;;;;;16.15;11.55;;;;;;;;;;5136643;27;20513;-82
2023/05/05 05:16:24;;;;;;;15.90;11.40;;;;;;;;;;5119737;27;20035;-82
2023/05/05 05:18:50;;;;;;;16.38;11.57;;;;;;;;;;5157614;27;20143;-82
2023/05/05 05:21:16;;;;;;;17.98;11.27;;;;;;;;;;5157358;27;20049;-82
2023/05/05 05:23:42;;;;;;;14.38;11.25;;;;;;;;;;5122029;27;20049;-73
2023/05/05 05:26:08;;;;;;;16.85;11.57;;;;;;;;;;5118875;27;20039;-73
2023/05/05 05:28:34;;;;;;;15.48;11.95;;;;;;;;;;5104814;27;20035;-72
2023/05/05 05:31:01;;;;;;;15.25;11.98;;;;;;;;;;5144269;27;20039;-72
2023/05/05 05:33:27;;;;;;;15.10;12.30;;;;;;;;;;5150554;27;20126;-72
2023/05/05 05:35:53;;;;;;;19.33;12.18;;;;;;;;;;5129591;27;20390;-72
2023/05/05 05:38:19;;;;;;;16.83;12.00;;;;;;;;;;5123802;27;20050;-72
2023/05/05 05:40:45;;;;;;;18.60;11.15;;;;;;;;;;5156820;27;20043;-72
2023/05/05 05:43:11;;;;;;;14.38;10.10;;;;;;;;;;5106883;27;20503;-73
2023/05/05 05:45:37;;;;;;;14.68;10.27;;;;;;;;;;5138220;27;20066;-82
2023/05/05 05:48:04;;;;;;;14.88;10.55;;;;;;;;;;5157255;27;20406;-82
2023/05/05 05:50:30;;;;;;;15.95;10.60;;;;;;;;;;5136708;27;20047;-81
2023/05/05 05:52:56;;;;;;;18.25;12.10;;;;;;;;;;5125163;27;20066;-81
2023/05/05 05:55:22;;;;;;;13.95;10.40;;;;;;;;;;5156613;27;20038;-73
2023/05/05 05:57:48;;;;;;;12.93;10.30;;;;;;;;;;5156720;27;20049;-72
2023/05/05 06:00:14;;;;;;;13.50;10.50;;;;;;;;;;5137686;27;20043;-73
2023/05/05 06:02:41;;;;;;;12.57;9.20;;;;;;;;;;5138109;27;20518;-73
2023/05/05 06:05:07;;;;;;;15.52;9.80;;;;;;;;;;5128279;27;20047;-73
2023/05/05 06:07:33;;;;;;;14.05;9.52;;;;;;;;;;5151766;27;20046;-73
2023/05/05 06:09:59;;;;;;;13.43;9.32;;;;;;;;;;5138204;27;20087;-73
2023/05/05 06:12:25;;;;;;;15.15;10.40;;;;;;;;;;5120515;27;20034;-73
2023/05/05 06:14:51;;;;;;;13.70;9.90;;;;;;;;;;5122102;27;20039;-73
2023/05/05 06:17:17;;;;;;;12.43;8.80;;;;;;;;;;5143918;27;20039;-73
2023/05/05 06:19:43;;;;;;;13.95;8.95;;;;;;;;;;5131703;27;20042;-74
2023/05/05 06:22:10;;;;;;;14.63;9.88;;;;;;;;;;5127801;27;20416;-73
2023/05/05 06:24:36;;;;;;;16.23;10.18;;;;;;;;;;5137461;27;20106;-73
2023/05/05 06:27:02;;;;;;;20.40;12.60;;;;;;;;;;5156486;27;20042;-73
2023/05/05 06:29:28;;;;;;;37.38;20.42;;;;;;;;;;5137686;27;20034;-73
2023/05/05 06:31:54;;;;;;;38.50;21.20;;;;;;;;;;5135438;27;20045;-73
2023/05/05 06:34:20;;;;;;;42.22;21.63;;;;;;;;;;5148142;27;20081;-73
2023/05/05 06:36:46;;;;;;;43.92;23.75;;;;;;;;;;5123081;27;20035;-74
2023/05/05 06:39:13;;;;;;;44.83;23.50;;;;;;;;;;5137833;27;20478;-74
2023/05/05 06:41:39;;;;;;;40.45;22.58;;;;;;;;;;5134581;27;20119;-74
2023/05/05 06:44:05;;;;;;;38.70;22.50;;;;;;;;;;5125753;27;20525;-73
2023/05/05 06:46:31;;;;;;;38.25;21.98;;;;;;;;;;5119938;27;20035;-73
2023/05/05 06:48:57;;;;;;;35.78;20.80;;;;;;;;;;5151970;27;20491;-80
2023/05/05 06:51:23;;;;;;;34.13;20.38;;;;;;;;;;5147245;27;20368;-74
2023/05/05 06:53:50;;;;;;;31.88;20.23;;;;;;;;;;5135740;27;20091;-74
2023/05/05 06:56:16;;;;;;;29.52;18.35;;;;;;;;;;5137366;27;20456;-74
2023/05/05 06:58:42;;;;;;;26.42;16.88;;;;;;;;;;5155450;27;20035;-74
2023/05/05 07:01:08;;;;;;;32.30;17.83;;;;;;;;;;5122399;27;20075;-78
2023/05/05 07:03:34;;;;;;;29.10;18.35;;;;;;;;;;5125570;27;20081;-78
2023/05/05 07:06:00;;;;;;;29.35;18.40;;;;;;;;;;5149211;27;20074;-78
2023/05/05 07:08:26;;;;;;;30.75;18.85;;;;;;;;;;5125541;27;20390;-79
2023/05/05 07:10:52;;;;;;;37.10;20.35;;;;;;;;;;5136653;27;20062;-79
2023/05/05 07:13:19;;;;;;;31.98;19.42;;;;;;;;;;5137061;27;20043;-79
2023/05/05 07:15:45;;;;;;;34.22;21.08;;;;;;;;;;5125024;27;20509;-78
2023/05/05 07:18:19;;;;;;;30.23;19.60;;;;;;;;;;5131318;27;20043;-73
2023/05/05 07:20:45;;;;;;;35.75;20.55;;;;;;;;;;5128385;27;20051;-73
2023/05/05 07:23:11;;;;;;;23.63;15.15;;;;;;;;;;5136335;27;20050;-72
2023/05/05 07:25:37;;;;;;;22.55;14.25;;;;;;;;;;5136007;27;20093;-73
2023/05/05 07:28:04;;;;;;;20.23;13.02;;;;;;;;;;5152450;27;20121;-78
2023/05/05 07:30:30;;;;;;;14.60;12.30;;;;;;;;;;5133848;27;20039;-78
2023/05/05 07:32:56;;;;;;;15.30;11.23;;;;;;;;;;5134535;27;20499;-78
2023/05/05 07:35:22;;;;;;;14.80;11.35;;;;;;;;;;5154668;27;20475;-78
2023/05/05 07:37:49;;;;;;;14.88;11.98;;;;;;;;;;5135947;27;20142;-78
2023/05/05 07:40:15;;;;;;;13.95;10.70;;;;;;;;;;5118428;27;20042;-77
2023/05/05 07:42:42;;;;;;;15.80;11.68;;;;;;;;;;5135856;27;20050;-73
2023/05/05 07:45:08;;;;;;;16.33;12.88;;;;;;;;;;5099145;27;20043;-73
2023/05/05 07:47:34;;;;;;;18.85;13.25;;;;;;;;;;5124217;27;20049;-73
2023/05/05 07:50:00;;;;;;;19.83;13.55;;;;;;;;;;5154475;27;20497;-73
2023/05/05 07:52:26;;;;;;;20.20;13.05;;;;;;;;;;5104343;27;20067;-77
2023/05/05 07:54:52;;;;;;;17.60;13.85;;;;;;;;;;5154453;27;20039;-72
2023/05/05 07:57:19;;;;;;;19.70;13.38;;;;;;;;;;5135718;27;20045;-77
2023/05/05 07:59:45;;;;;;;17.80;13.95;;;;;;;;;;5128557;27;20046;-77
2023/05/05 08:02:11;;;;;;;18.40;13.57;;;;;;;;;;5128939;27;20125;-76
2023/05/05 08:04:40;;;;;;;19.48;13.63;;;;;;;;;;5135760;27;20550;-77
2023/05/05 08:07:07;;;;;;;21.35;14.50;;;;;;;;;;5154356;27;20050;-73
2023/05/05 08:09:34;;;;;;;20.48;14.02;;;;;;;;;;5149806;27;20081;-73
2023/05/05 08:12:01;;;;;;;18.85;13.68;;;;;;;;;;5143971;27;20039;-77
2023/05/05 08:14:27;;;;;;;19.42;15.02;;;;;;;;;;5119083;27;20093;-77
2023/05/05 08:16:53;;;;;;;19.48;14.05;;;;;;;;;;5135464;27;20034;-73
2023/05/05 08:19:19;;;;;;;18.25;13.07;;;;;;;;;;5135134;27;20049;-72
2023/05/05 08:21:45;;;;;;;20.45;14.05;;;;;;;;;;5121570;27;20062;-72
2023/05/05 08:24:11;;;;;;;18.70;13.07;;;;;;;;;;5136130;27;20436;-76
2023/05/05 08:26:38;;;;;;;17.15;12.73;;;;;;;;;;5122138;27;20062;-72
2023/05/05 08:29:04;;;;;;;17.90;12.48;;;;;;;;;;5158604;27;20487;-76
2023/05/05 08:31:35;;;;;;;20.38;13.75;;;;;;;;;;5139778;27;20114;-76
2023/05/05 08:34:01;;;;;;;21.00;12.98;;;;;;;;;;5139736;27;20042;-76
2023/05/05 08:36:28;;;;;;;20.38;13.10;;;;;;;;;;5118929;27;20122;-76
2023/05/05 08:38:54;;;;;;;16.08;11.77;;;;;;;;;;5119212;27;20039;-73
2023/05/05 08:41:20;;;;;;;14.80;10.73;;;;;;;;;;5131168;27;20070;-77
2023/05/05 08:43:48;;;;;;;16.63;11.05;;;;;;;;;;5103838;27;20122;-78
2023/05/05 08:46:14;;;;;;;13.30;10.07;;;;;;;;;;5129663;27;20042;-78
2023/05/05 08:48:41;;;;;;;10.18;8.35;;;;;;;;;;5136870;27;20096;-73
2023/05/05 08:51:09;;;;;;;9.98;8.25;;;;;;;;;;5139462;27;20175;-73
2023/05/05 08:53:38;;;;;;;11.55;8.27;;;;;;;;;;5126437;27;20043;-74
2023/05/05 08:56:05;;;;;;;13.45;8.80;;;;;;;;;;5133105;27;20035;-77
2023/05/05 08:58:31;;;;;;;10.25;7.75;;;;;;;;;;5137202;27;20426;-78
2023/05/05 09:01:00;;;;;;;10.68;7.63;;;;;;;;;;5119249;27;20555;-78
2023/05/05 09:03:26;;;;;;;17.80;8.10;;;;;;;;;;5116947;27;20051;-77
2023/05/05 09:05:53;;;;;;;10.90;7.35;;;;;;;;;;5148173;27;20043;-77
2023/05/05 09:08:19;;;;;;;10.27;7.47;;;;;;;;;;5138674;27;20046;-74
2023/05/05 09:10:47;;;;;;;10.50;8.00;;;;;;;;;;5129570;27;20068;-74
2023/05/05 09:13:14;;;;;;;10.35;8.50;;;;;;;;;;5118326;27;20440;-73
2023/05/05 09:15:40;;;;;;;10.25;7.63;;;;;;;;;;5140743;27;20027;-76
2023/05/05 09:18:13;;;;;;;14.48;9.00;;;;;;;;;;5132904;27;20108;-76
2023/05/05 09:20:39;;;;;;;14.75;9.35;;;;;;;;;;5125414;27;20046;-73
2023/05/05 09:23:10;;;;;;;15.40;8.88;;;;;;;;;;5157577;27;20031;-73
2023/05/05 09:25:36;;;;;;;11.70;8.57;;;;;;;;;;5138736;27;20039;-73
2023/05/05 09:28:09;;;;;;;10.32;7.88;;;;;;;;;;5144980;27;20038;-72
2023/05/05 09:30:35;;;;;;;11.23;8.50;;;;;;;;;;5137200;27;20083;-75
2023/05/05 09:33:01;;;;;;;11.75;9.13;;;;;;;;;;5157102;27;20046;-76
2023/05/05 09:35:28;;;;;;;11.77;8.85;;;;;;;;;;5119294;27;20038;-73
2023/05/05 09:37:54;;;;;;;11.13;7.90;;;;;;;;;;5137837;27;20498;-76
2023/05/05 09:40:20;;;;;;;9.88;7.38;;;;;;;;;;5135147;27;20058;-76
2023/05/05 09:42:46;;;;;;;11.43;7.68;;;;;;;;;;5136352;27;20388;-77
2023/05/05 09:45:19;;;;;;;9.38;6.45;;;;;;;;;;5133595;27;20189;-76
2023/05/05 09:47:48;;;;;;;10.50;6.78;;;;;;;;;;5124809;27;20054;-72
2023/05/05 09:50:17;;;;;;;9.73;6.35;;;;;;;;;;5132594;27;20039;-73
2023/05/05 09:53:03;;;;;;;12.45;7.25;;;;;;;;;;5113227;27;20042;-75
2023/05/05 09:55:30;;;;;;;9.48;6.15;;;;;;;;;;5134893;27;20042;-73
2023/05/05 09:57:56;;;;;;;8.27;5.10;;;;;;;;;;5127897;27;20057;-75
2023/05/05 10:00:36;;;;;;;9.38;6.10;;;;;;;;;;5128773;27;20445;-75
2023/05/05 10:03:02;;;;;;;7.15;5.10;;;;;;;;;;5126538;27;20044;-76
2023/05/05 10:05:28;;;;;;;7.85;4.93;;;;;;;;;;5128292;27;20054;-76
2023/05/05 10:07:55;;;;;;;9.57;4.25;;;;;;;;;;5130031;27;20046;-76
2023/05/05 10:10:21;;;;;;;7.97;4.53;;;;;;;;;;5105861;28;20083;-76
2023/05/05 10:12:48;;;;;;;7.72;5.20;;;;;;;;;;5128987;27;20044;-76
2023/05/05 10:15:15;;;;;;;8.02;4.80;;;;;;;;;;5135207;27;20042;-76
2023/05/05 10:17:48;;;;;;;10.90;6.10;;;;;;;;;;5135578;27;20404;-75
2023/05/05 10:20:15;;;;;;;10.95;6.00;;;;;;;;;;5131295;27;20028;-75
2023/05/05 10:22:51;;;;;;;11.27;7.43;;;;;;;;;;5113999;28;20091;-71
2023/05/05 10:25:18;;;;;;;10.00;6.90;;;;;;;;;;5132562;27;20076;-74
2023/05/05 10:27:46;;;;;;;11.35;7.50;;;;;;;;;;5125696;27;20043;-77
2023/05/05 10:30:16;;;;;;;12.52;7.50;;;;;;;;;;5129463;27;20499;-76
2023/05/05 10:33:04;;;;;;;10.43;7.65;;;;;;;;;;5123129;27;20066;-76
2023/05/05 10:35:31;;;;;;;13.85;7.47;;;;;;;;;;5104416;27;20384;-74
2023/05/05 10:37:57;;;;;;;11.13;7.43;;;;;;;;;;5121706;27;20052;-74
2023/05/05 10:40:23;;;;;;;11.95;8.27;;;;;;;;;;5134157;27;20515;-73
2023/05/05 10:42:50;;;;;;;12.52;7.75;;;;;;;;;;5134469;27;20479;-74
2023/05/05 10:45:16;;;;;;;11.57;7.90;;;;;;;;;;5133276;27;20069;-74
2023/05/05 10:47:43;;;;;;;13.40;8.07;;;;;;;;;;5119075;27;20046;-73
2023/05/05 10:50:20;;;;;;;12.68;8.65;;;;;;;;;;5115793;27;20039;-75
2023/05/05 10:52:56;;;;;;;12.02;8.27;;;;;;;;;;5110610;28;20059;-76
2023/05/05 10:55:40;;;;;;;12.48;9.18;;;;;;;;;;5126964;27;20053;-77
2023/05/05 10:58:07;;;;;;;12.55;7.60;;;;;;;;;;5108654;27;20043;-75
2023/05/05 11:00:39;;;;;;;12.82;7.82;;;;;;;;;;5133711;27;20075;-76
2023/05/05 11:03:17;;;;;;;11.50;7.45;;;;;;;;;;5106482;27;20104;-73
2023/05/05 11:06:01;;;;;;;10.43;7.40;;;;;;;;;;5119859;27;20071;-73
2023/05/05 11:08:28;;;;;;;12.30;7.82;;;;;;;;;;5123201;27;20039;-73
2023/05/05 11:10:54;;;;;;;17.52;7.50;;;;;;;;;;5133813;27;20100;-73
2023/05/05 11:13:20;;;;;;;12.23;6.93;;;;;;;;;;5121097;27;20039;-73
2023/05/05 11:15:47;;;;;;;10.13;6.45;;;;;;;;;;5134448;27;20039;-73
2023/05/05 11:18:34;;;;;;;10.73;6.07;;;;;;;;;;5128963;27;20039;-71
2023/05/05 11:21:00;;;;;;;9.32;6.25;;;;;;;;;;5114077;28;20039;-73
2023/05/05 11:23:27;;;;;;;9.55;7.18;;;;;;;;;;5133279;27;20050;-73
2023/05/05 11:25:54;;;;;;;13.40;6.47;;;;;;;;;;5120542;27;20069;-73
2023/05/05 11:28:29;;;;;;;9.75;6.35;;;;;;;;;;5117376;27;20039;-74
2023/05/05 11:30:55;;;;;;;;;;;;;;;;;;5121344;27;20122;-72
2023/05/05 11:33:38;;;;;;;8.15;5.63;;;;;;;;;;5131900;27;19919;-72
2023/05/05 11:36:08;;;;;;;10.32;6.20;;;;;;;;;;5116319;27;20491;-76
2023/05/05 11:38:53;;;;;;;10.02;6.50;;;;;;;;;;5133824;27;20103;-73
2023/05/05 11:41:31;;;;;;;10.98;6.90;;;;;;;;;;5133018;27;20050;-72
2023/05/05 11:44:14;;;;;;;10.77;7.03;;;;;;;;;;5108926;27;20521;-76
2023/05/05 11:46:41;;;;;;;9.57;6.90;;;;;;;;;;5118872;27;20051;-76
2023/05/05 11:49:08;;;;;;;9.30;6.40;;;;;;;;;;5128660;27;20046;-76
2023/05/05 11:51:34;;;;;;;8.05;6.13;;;;;;;;;;5122876;27;20463;-76
2023/05/05 11:54:00;;;;;;;10.05;5.88;;;;;;;;;;5126332;27;20050;-73
2023/05/05 11:56:26;;;;;;;9.75;6.18;;;;;;;;;;5121372;27;20396;-73
2023/05/05 11:59:08;;;;;;;9.43;6.00;;;;;;;;;;5133366;27;20042;-73
2023/05/05 12:01:35;;;;;;;10.48;5.50;;;;;;;;;;5125360;27;20049;-73
2023/05/05 12:04:02;;;;;;;6.88;4.78;;;;;;;;;;5112168;28;20392;-73
2023/05/05 12:06:31;;;;;;;7.97;4.93;;;;;;;;;;5101623;28;20047;-73
2023/05/05 12:08:57;;;;;;;8.20;4.85;;;;;;;;;;5105771;27;20040;-77
2023/05/05 12:11:23;;;;;;;6.85;4.18;;;;;;;;;;5117162;27;20038;-76
2023/05/05 12:13:49;;;;;;;7.75;4.53;;;;;;;;;;5104018;28;20039;-77
2023/05/05 12:16:16;;;;;;;11.25;5.50;;;;;;;;;;5110626;28;20075;-77
2023/05/05 12:18:42;;;;;;;9.63;5.50;;;;;;;;;;5129622;27;20060;-76
2023/05/05 12:21:18;;;;;;;11.13;5.70;;;;;;;;;;5125084;27;20031;-77
2023/05/05 12:23:44;;;;;;;9.38;5.35;;;;;;;;;;5111098;28;20547;-78
2023/05/05 12:26:45;;;;;;;9.60;3.90;;;;;;;;;;5132264;28;20038;-78
2023/05/05 12:29:14;;;;;;;8.68;3.58;;;;;;;;;;5052820;28;20039;-72
2023/05/05 12:31:41;;;;;;;8.98;2.75;;;;;;;;;;5089010;28;20119;-78
2023/05/05 12:34:10;;;;;;;6.25;2.70;;;;;;;;;;5115882;28;20045;-73
2023/05/05 12:36:37;;;;;;;7.95;3.00;;;;;;;;;;5132083;28;20128;-72
2023/05/05 12:39:04;;;;;;;14.50;4.70;;;;;;;;;;5130112;28;20040;-79
2023/05/05 12:41:31;;;;;;;13.80;5.97;;;;;;;;;;5137335;27;20069;-79
2023/05/05 12:43:57;;;;;;;19.23;6.85;;;;;;;;;;5154165;27;20448;-71
2023/05/05 12:46:24;;;;;;;15.63;7.15;;;;;;;;;;5133033;27;20032;-71
2023/05/05 12:49:06;;;;;;;15.75;6.75;;;;;;;;;;5145754;27;20411;-77
2023/05/05 12:51:33;;;;;;;17.45;7.80;;;;;;;;;;5153473;27;20121;-76
2023/05/05 12:54:05;;;;;;;16.45;8.05;;;;;;;;;;5137021;27;20035;-76
2023/05/05 12:56:33;;;;;;;13.30;6.20;;;;;;;;;;5106552;27;20441;-75
2023/05/05 12:58:59;;;;;;;11.52;6.25;;;;;;;;;;5133998;27;20068;-76
2023/05/05 13:01:25;;;;;;;13.05;6.28;;;;;;;;;;5132443;27;20057;-75
2023/05/05 13:04:04;;;;;;;10.60;5.47;;;;;;;;;;5097837;28;20043;-70
2023/05/05 13:06:30;;;;;;;13.00;6.28;;;;;;;;;;5114559;28;20114;-71
2023/05/05 13:08:56;;;;;;;11.25;5.25;;;;;;;;;;5128139;27;20133;-70
2023/05/05 13:11:22;;;;;;;7.97;4.40;;;;;;;;;;5148004;27;20035;-75
2023/05/05 13:13:48;;;;;;;8.70;4.90;;;;;;;;;;5129626;27;20074;-76
2023/05/05 13:16:14;;;;;;;10.13;4.60;;;;;;;;;;5135579;27;20035;-70
2023/05/05 13:18:44;;;;;;;7.43;4.30;;;;;;;;;;5146245;27;20391;-70
2023/05/05 13:21:11;;;;;;;7.38;4.30;;;;;;;;;;5136988;27;20090;-70
2023/05/05 13:23:37;;;;;;;9.02;4.43;;;;;;;;;;5108815;27;20049;-71
2023/05/05 13:26:03;;;;;;;10.52;4.60;;;;;;;;;;5138973;27;20537;-70
2023/05/05 13:28:29;;;;;;;11.70;4.72;;;;;;;;;;5140009;27;20039;-70
2023/05/05 13:30:57;;;;;;;9.18;3.95;;;;;;;;;;5138437;27;20150;-71
2023/05/05 13:33:23;;;;;;;7.05;3.95;;;;;;;;;;5157194;27;20043;-70
2023/05/05 13:35:49;;;;;;;9.25;3.78;;;;;;;;;;5142759;27;20039;-71
2023/05/05 13:38:15;;;;;;;8.00;3.42;;;;;;;;;;5156964;27;20027;-71
2023/05/05 13:40:42;;;;;;;7.68;3.65;;;;;;;;;;5120962;27;20051;-71
2023/05/05 13:43:08;;;;;;;7.97;3.90;;;;;;;;;;5156862;27;20118;-72
2023/05/05 13:45:34;;;;;;;8.07;4.10;;;;;;;;;;5138164;27;20050;-71
2023/05/05 13:48:00;;;;;;;10.20;4.28;;;;;;;;;;5156834;27;20043;-70
2023/05/05 13:50:26;;;;;;;9.15;4.20;;;;;;;;;;5156330;27;20055;-71
2023/05/05 13:52:52;;;;;;;8.50;4.28;;;;;;;;;;5156936;27;20421;-71
2023/05/05 13:55:19;;;;;;;9.43;4.22;;;;;;;;;;5121192;27;20039;-71
2023/05/05 13:57:46;;;;;;;10.98;4.50;;;;;;;;;;5142111;27;20031;-71
2023/05/05 14:00:12;;;;;;;8.32;4.00;;;;;;;;;;5145456;27;20391;-72
2023/05/05 14:02:38;;;;;;;8.98;4.05;;;;;;;;;;5134804;27;20462;-71
2023/05/05 14:05:05;;;;;;;9.38;4.20;;;;;;;;;;5137842;27;20043;-72
2023/05/05 14:07:31;;;;;;;8.93;4.05;;;;;;;;;;5113422;27;20051;-71
2023/05/05 14:09:57;;;;;;;8.18;4.05;;;;;;;;;;5120679;27;20039;-71
2023/05/05 14:12:23;;;;;;;8.10;4.03;;;;;;;;;;5141875;27;20042;-72
2023/05/05 14:14:50;;;;;;;7.20;3.88;;;;;;;;;;5141310;27;20039;-71
2023/05/05 14:17:16;;;;;;;10.50;4.53;;;;;;;;;;5126110;27;20114;-72
2023/05/05 14:19:43;;;;;;;8.65;4.40;;;;;;;;;;5153328;27;20038;-77
2023/05/05 14:22:09;;;;;;;7.28;4.57;;;;;;;;;;5156271;27;20475;-77
2023/05/05 14:24:35;;;;;;;8.13;5.32;;;;;;;;;;5137319;27;20087;-77
2023/05/05 14:27:04;;;;;;;8.32;5.28;;;;;;;;;;5137690;27;20045;-77
2023/05/05 14:29:30;;;;;;;7.90;5.63;;;;;;;;;;5141168;27;20031;-78
2023/05/05 14:31:56;;;;;;;11.50;5.80;;;;;;;;;;5130826;27;20122;-77
2023/05/05 14:34:22;;;;;;;9.35;5.28;;;;;;;;;;5129485;27;20039;-71